Time;durP1;ratioP1;P1;durP2;ratioP2;P2;SDS_P1;SDS_P2;PMS_P1;PMS_P2;Temp;Humidity;BMP_temperature;BMP_pressure;BME280_temperature;BME280_humidity;BME280_pressure;Samples;Min_cycle;Max_cycle;Signal;HPM_P1;HPM_P2
2023/03/04 00:01:51;;;;;;;11.10;7.80;;;23.00;50.60;;;;;;222616;1261;24239;-41
2023/03/04 00:06:56;;;;;;;10.80;8.80;;;22.90;50.30;;;;;;222595;1262;22538;-39
2023/03/04 00:12:00;;;;;;;10.90;8.40;;;22.80;50.30;;;;;;222637;1246;22513;-40
2023/03/04 00:17:04;;;;;;;10.70;8.50;;;22.70;50.60;;;;;;222591;1261;22555;-51
2023/03/04 00:22:08;;;;;;;29.20;9.30;;;22.60;51.10;;;;;;222790;1254;22530;-39
2023/03/04 00:27:12;;;;;;;10.20;8.70;;;22.60;52.50;;;;;;222633;1263;22511;-41
2023/03/04 00:32:17;;;;;;;10.90;8.20;;;22.70;51.20;;;;;;222769;1263;26452;-40
2023/03/04 00:37:21;;;;;;;10.50;8.80;;;22.60;51.40;;;;;;222503;1254;25459;-40
2023/03/04 00:42:26;;;;;;;10.90;8.30;;;22.60;51.40;;;;;;222457;1263;22508;-39
2023/03/04 00:47:30;;;;;;;10.30;8.30;;;22.50;51.40;;;;;;222499;1264;25475;-42
2023/03/04 00:52:34;;;;;;;10.20;8.20;;;22.40;51.60;;;;;;222545;1254;22509;-40
2023/03/04 00:57:38;;;;;;;10.50;8.90;;;22.30;51.60;;;;;;222247;1253;23178;-40
2023/03/04 01:02:42;;;;;;;8.20;7.30;;;22.20;52.20;;;;;;222278;1261;25174;-40
2023/03/04 01:07:46;;;;;;;10.00;8.50;;;22.20;52.10;;;;;;222233;1254;22655;-39
2023/03/04 01:12:50;;;;;;;12.60;8.40;;;22.20;51.80;;;;;;222985;1260;22526;-39
2023/03/04 01:17:55;;;;;;;11.50;8.00;;;22.10;51.90;;;;;;222510;1254;22504;-41
2023/03/04 01:22:59;;;;;;;8.00;7.20;;;22.00;51.80;;;;;;222049;1261;23916;-41
2023/03/04 01:28:03;;;;;;;10.80;7.60;;;22.00;51.90;;;;;;222367;1254;22511;-39
2023/03/04 01:33:08;;;;;;;9.80;7.60;;;22.00;52.30;;;;;;222408;1255;22505;-41
2023/03/04 01:38:12;;;;;;;8.90;7.30;;;22.00;52.30;;;;;;222441;1253;22508;-40
2023/03/04 01:43:26;;;;;;;10.50;7.30;;;21.90;52.20;;;;;;222350;1253;22504;-40
2023/03/04 01:48:36;;;;;;;11.50;7.40;;;21.80;52.40;;;;;;222448;1253;22511;-41
2023/03/04 01:53:40;;;;;;;7.80;7.00;;;21.80;52.00;;;;;;222380;1262;25269;-40
2023/03/04 01:58:44;;;;;;;9.50;6.80;;;21.70;52.00;;;;;;222320;1253;22881;-39
2023/03/04 02:03:48;;;;;;;10.00;7.10;;;21.70;52.50;;;;;;222204;1254;22498;-41
2023/03/04 02:08:52;;;;;;;7.90;6.40;;;21.70;52.00;;;;;;222544;1244;23880;-40
2023/03/04 02:13:57;;;;;;;8.50;7.00;;;21.60;52.00;;;;;;222233;1266;24236;-41
2023/03/04 02:19:01;;;;;;;7.40;6.40;;;21.60;52.10;;;;;;222122;1261;390794;-39
2023/03/04 02:24:08;;;;;;;8.70;7.20;;;21.60;52.00;;;;;;222172;1261;23061;-40
2023/03/04 02:29:15;;;;;;;8.30;6.60;;;21.50;52.60;;;;;;222746;1254;25367;-41
2023/03/04 02:34:23;;;;;;;7.20;6.40;;;21.80;52.10;;;;;;222611;1264;22508;-40
2023/03/04 02:39:35;;;;;;;6.50;5.90;;;22.00;51.90;;;;;;222311;1263;22631;-41
2023/03/04 02:44:44;;;;;;;6.90;6.10;;;22.40;50.70;;;;;;222394;1263;22495;-40
2023/03/04 02:49:49;;;;;;;8.70;6.10;;;22.60;50.70;;;;;;222499;1260;22957;-40
2023/03/04 02:54:53;;;;;;;5.70;5.20;;;22.90;50.20;;;;;;222351;1254;22505;-40
2023/03/04 02:59:58;;;;;;;6.60;6.00;;;22.80;49.70;;;;;;222609;1263;25528;-40
2023/03/04 03:05:03;;;;;;;7.10;5.80;;;23.00;49.50;;;;;;222753;1254;24237;-41
2023/03/04 03:10:08;;;;;;;6.00;5.50;;;23.00;49.30;;;;;;222384;1253;22521;-40
2023/03/04 03:15:13;;;;;;;5.70;5.20;;;23.00;49.70;;;;;;222287;1261;24215;-41
2023/03/04 03:20:17;;;;;;;5.70;5.20;;;23.00;49.30;;;;;;222583;1261;24362;-40
2023/03/04 03:25:22;;;;;;;4.90;4.50;;;23.00;49.40;;;;;;222299;1255;22586;-41
2023/03/04 03:30:28;;;;;;;6.00;5.30;;;22.80;49.60;;;;;;222648;1254;24190;-39
2023/03/04 03:35:32;;;;;;;5.60;5.10;;;22.90;49.40;;;;;;223191;1261;24186;-40
2023/03/04 03:40:37;;;;;;;5.70;5.10;;;23.00;49.40;;;;;;222515;1253;25680;-42
2023/03/04 03:45:41;;;;;;;5.30;4.80;;;23.00;49.30;;;;;;222377;1257;22632;-39
2023/03/04 03:50:46;;;;;;;5.70;5.20;;;23.00;49.30;;;;;;222595;1263;22504;-42
2023/03/04 03:55:50;;;;;;;5.60;5.00;;;23.00;49.20;;;;;;222526;1263;22690;-40
2023/03/04 04:00:54;;;;;;;5.60;4.60;;;23.10;49.40;;;;;;222510;1264;22512;-41
2023/03/04 04:06:01;;;;;;;5.10;4.70;;;23.10;49.10;;;;;;222402;1265;22648;-39
2023/03/04 04:11:05;;;;;;;5.10;4.70;;;23.20;49.00;;;;;;222476;1263;24218;-41
2023/03/04 04:16:10;;;;;;;5.40;4.90;;;23.20;49.60;;;;;;222497;1260;22528;-40
2023/03/04 04:21:14;;;;;;;5.30;4.50;;;23.20;48.80;;;;;;222553;1263;25145;-39
2023/03/04 04:26:18;;;;;;;5.30;4.90;;;23.10;49.00;;;;;;222572;1268;22569;-40
2023/03/04 04:31:22;;;;;;;5.00;4.50;;;22.90;49.30;;;;;;222448;1263;22519;-41
2023/03/04 04:36:27;;;;;;;4.70;4.30;;;23.00;49.70;;;;;;222724;1263;22562;-40
2023/03/04 04:41:36;;;;;;;4.90;4.40;;;23.00;49.90;;;;;;222552;1263;25615;-41
2023/03/04 04:46:40;;;;;;;4.50;4.10;;;22.90;49.60;;;;;;222535;1261;25200;-41
2023/03/04 04:51:44;;;;;;;4.70;4.30;;;22.90;49.70;;;;;;222510;1261;24256;-40
2023/03/04 04:56:48;;;;;;;4.80;4.40;;;22.80;50.10;;;;;;222471;1264;22507;-41
2023/03/04 05:01:53;;;;;;;4.90;4.40;;;22.70;49.80;;;;;;222580;1264;22502;-41
2023/03/04 05:06:56;;;;;;;4.80;4.40;;;22.60;50.30;;;;;;222541;1264;22509;-40
2023/03/04 05:12:00;;;;;;;4.60;4.20;;;22.50;50.50;;;;;;222208;1263;23004;-41
2023/03/04 05:17:06;;;;;;;5.00;4.40;;;22.40;50.50;;;;;;222200;1263;23880;-41
2023/03/04 05:22:10;;;;;;;5.00;4.50;;;22.30;50.10;;;;;;222223;1256;23176;-40
2023/03/04 05:27:14;;;;;;;4.60;4.20;;;22.20;50.50;;;;;;222458;1257;22627;-41
2023/03/04 05:32:18;;;;;;;4.40;4.00;;;22.10;50.30;;;;;;222301;1266;22634;-40
2023/03/04 05:37:22;;;;;;;4.60;4.20;;;22.10;50.50;;;;;;222304;1256;23074;-40
2023/03/04 05:42:26;;;;;;;4.90;4.50;;;22.00;51.00;;;;;;222274;1269;22661;-40
2023/03/04 05:47:30;;;;;;;4.90;4.50;;;22.00;50.80;;;;;;222263;1254;22505;-40
2023/03/04 05:52:34;;;;;;;4.50;4.20;;;21.90;50.70;;;;;;222225;1263;25426;-41
2023/03/04 05:57:38;;;;;;;4.70;3.80;;;21.90;50.50;;;;;;222354;1263;22508;-40
2023/03/04 06:02:43;;;;;;;4.40;4.00;;;21.90;50.60;;;;;;222544;1263;24369;-40
2023/03/04 06:07:48;;;;;;;4.20;3.80;;;21.90;50.80;;;;;;222496;1254;22515;-40
2023/03/04 06:12:52;;;;;;;4.20;3.90;;;21.80;50.60;;;;;;222314;1268;22977;-42
2023/03/04 06:17:56;;;;;;;4.00;3.70;;;21.80;50.60;;;;;;222538;1263;22543;-39
2023/03/04 06:23:00;;;;;;;4.60;4.20;;;21.80;51.10;;;;;;222586;1263;24284;-41
2023/03/04 06:28:04;;;;;;;3.90;3.60;;;21.80;51.00;;;;;;222608;1266;22517;-40
2023/03/04 06:33:08;;;;;;;3.80;3.50;;;22.00;50.40;;;;;;222674;1262;22508;-41
2023/03/04 06:38:12;;;;;;;3.40;3.10;;;22.30;50.00;;;;;;222600;1265;22521;-42
2023/03/04 06:43:16;;;;;;;3.80;3.50;;;22.50;49.40;;;;;;222411;1256;24354;-40
2023/03/04 06:48:20;;;;;;;4.30;3.60;;;22.70;48.90;;;;;;222578;1261;24252;-41
2023/03/04 06:53:24;;;;;;;4.10;3.70;;;22.80;48.60;;;;;;222613;1263;22891;-40
2023/03/04 06:58:28;;;;;;;4.20;3.80;;;22.80;48.70;;;;;;222403;1268;22554;-40
2023/03/04 07:03:32;;;;;;;3.20;3.00;;;22.70;48.80;;;;;;222481;1263;22543;-41
2023/03/04 07:08:37;;;;;;;3.90;3.60;;;22.80;49.10;;;;;;222480;1269;24206;-41
2023/03/04 07:13:42;;;;;;;3.40;3.10;;;22.80;48.60;;;;;;222459;1266;24846;-41
2023/03/04 07:18:46;;;;;;;3.30;3.10;;;22.70;48.60;;;;;;222259;1266;25207;-40
2023/03/04 07:23:50;;;;;;;4.70;4.20;;;22.80;48.90;;;;;;222621;1267;22528;-41
2023/03/04 07:28:57;;;;;;;3.20;3.00;;;22.80;48.70;;;;;;222611;1263;22523;-41
2023/03/04 07:34:05;;;;;;;4.50;3.30;;;22.80;49.00;;;;;;222574;1263;22511;-40
2023/03/04 07:39:11;;;;;;;3.20;2.90;;;22.90;49.00;;;;;;222345;1269;22520;-39
2023/03/04 07:44:15;;;;;;;3.40;3.20;;;22.90;48.40;;;;;;222502;1262;25587;-40
2023/03/04 07:49:19;;;;;;;3.50;3.10;;;23.00;48.40;;;;;;222569;1266;23954;-39
2023/03/04 07:54:24;;;;;;;3.10;2.90;;;23.00;48.30;;;;;;222627;1262;22501;-40
2023/03/04 07:59:28;;;;;;;5.20;2.90;;;23.00;48.20;;;;;;222618;1263;22534;-40
2023/03/04 08:04:32;;;;;;;5.60;3.00;;;23.10;48.20;;;;;;222402;1264;22575;-48
2023/03/04 08:09:36;;;;;;;3.30;3.00;;;23.10;48.00;;;;;;222510;1263;22635;-47
2023/03/04 08:14:40;;;;;;;3.10;2.80;;;23.10;48.10;;;;;;222371;1263;24497;-46
2023/03/04 08:19:44;;;;;;;7.40;3.10;;;23.20;48.10;;;;;;222347;1264;24509;-52
2023/03/04 08:24:50;;;;;;;5.80;2.60;;;23.10;48.10;;;;;;222231;1266;23902;-50
2023/03/04 08:29:59;;;;;;;3.10;2.70;;;23.20;48.20;;;;;;222518;1264;22506;-52
2023/03/04 08:35:03;;;;;;;3.80;2.70;;;23.30;47.60;;;;;;222465;1267;23007;-51
2023/03/04 08:40:08;;;;;;;3.50;3.20;;;23.40;47.10;;;;;;222393;1250;25328;-47
2023/03/04 08:45:12;;;;;;;7.20;2.80;;;23.40;47.10;;;;;;222796;1267;25380;-50
2023/03/04 08:50:16;;;;;;;4.40;2.80;;;23.40;46.90;;;;;;222631;1264;22514;-50
2023/03/04 08:55:22;;;;;;;6.40;2.90;;;23.50;46.70;;;;;;222710;1267;22707;-50
2023/03/04 09:00:26;;;;;;;2.80;2.60;;;23.50;46.30;;;;;;222604;1267;25295;-51
2023/03/04 09:05:31;;;;;;;4.10;2.90;;;23.40;46.40;;;;;;222120;1264;23582;-54
2023/03/04 09:10:35;;;;;;;4.30;3.20;;;23.30;46.00;;;;;;222415;1260;23753;-57
2023/03/04 09:15:44;;;;;;;4.60;3.10;;;23.20;46.50;;;;;;222492;1267;25330;-56
2023/03/04 09:20:48;;;;;;;4.30;3.40;;;23.10;46.60;;;;;;222277;1263;22515;-55
2023/03/04 09:25:52;;;;;;;3.10;2.90;;;22.90;47.20;;;;;;222328;1252;22528;-53
2023/03/04 09:30:56;;;;;;;8.20;3.40;;;22.80;47.40;;;;;;222221;1264;23017;-49
2023/03/04 09:36:00;;;;;;;3.40;3.00;;;22.80;48.10;;;;;;222563;1257;24206;-45
2023/03/04 09:41:08;;;;;;;5.00;3.30;;;22.70;48.50;;;;;;222202;1264;23881;-44
2023/03/04 09:46:21;;;;;;;17.70;4.10;;;22.60;49.50;;;;;;222416;1263;22546;-52
2023/03/04 09:51:34;;;;;;;7.70;2.80;;;22.50;50.80;;;;;;222301;1247;25558;-51
2023/03/04 09:56:40;;;;;;;5.10;3.00;;;22.70;50.50;;;;;;222336;1262;25307;-50
2023/03/04 10:01:51;;;;;;;8.00;3.20;;;22.50;50.40;;;;;;222239;1265;22676;-48
2023/03/04 10:06:55;;;;;;;6.90;3.20;;;22.60;51.10;;;;;;222555;1254;24208;-52
2023/03/04 10:12:04;;;;;;;4.90;3.10;;;22.60;50.60;;;;;;222678;1264;24212;-54
2023/03/04 10:17:37;;;;;;;7.60;3.60;;;22.40;50.90;;;;;;222530;1266;25439;-52
2023/03/04 10:22:47;;;;;;;4.90;3.10;;;22.50;50.60;;;;;;222438;1263;24178;-51
2023/03/04 10:27:58;;;;;;;7.10;3.30;;;22.40;50.60;;;;;;222743;1266;25404;-51
2023/03/04 10:33:04;;;;;;;9.30;3.60;;;22.40;50.40;;;;;;222246;1254;23890;-49
2023/03/04 10:38:10;;;;;;;14.10;2.90;;;22.20;50.70;;;;;;222513;1263;22519;-53
2023/03/04 10:43:16;;;;;;;6.70;3.10;;;22.30;50.30;;;;;;222637;1254;22580;-54
2023/03/04 10:48:26;;;;;;;7.70;3.20;;;22.10;50.70;;;;;;222493;1264;22570;-51
2023/03/04 10:53:36;;;;;;;5.00;3.50;;;22.00;50.80;;;;;;222337;1263;23882;-50
2023/03/04 10:58:40;;;;;;;5.80;3.30;;;21.90;51.30;;;;;;222752;1261;23684;-57
2023/03/04 11:03:48;;;;;;;7.00;3.20;;;21.90;52.00;;;;;;222460;1254;22650;-52
2023/03/04 11:08:58;;;;;;;6.30;3.20;;;21.80;51.90;;;;;;222409;1263;23039;-52
2023/03/04 11:14:15;;;;;;;6.90;3.40;;;21.80;51.90;;;;;;227886;1263;25227;-54
2023/03/04 11:19:21;;;;;;;7.60;3.40;;;22.00;51.30;;;;;;222410;1254;24340;-54
2023/03/04 11:24:28;;;;;;;9.00;3.20;;;21.80;51.20;;;;;;222428;1262;24243;-53
2023/03/04 11:29:41;;;;;;;7.00;3.20;;;21.70;51.40;;;;;;222245;1264;25312;-55
2023/03/04 11:34:57;;;;;;;8.80;3.50;;;21.70;51.20;;;;;;222501;1263;24340;-54
2023/03/04 11:40:15;;;;;;;4.70;3.00;;;21.80;51.20;;;;;;222437;1254;23129;-55
2023/03/04 11:45:29;;;;;;;7.40;3.10;;;21.70;51.10;;;;;;222400;1263;23713;-55
2023/03/04 11:50:59;;;;;;;12.80;3.10;;;21.60;51.80;;;;;;222410;1264;22494;-52
2023/03/04 11:56:30;;;;;;;6.40;3.40;;;21.70;51.30;;;;;;222547;1253;25060;-52
2023/03/04 12:01:49;;;;;;;5.80;3.00;;;21.60;51.30;;;;;;222386;1263;24735;-54
2023/03/04 12:07:13;;;;;;;13.10;3.40;;;21.50;52.00;;;;;;222495;1263;24379;-52
2023/03/04 12:12:22;;;;;;;3.30;2.90;;;21.50;51.70;;;;;;222059;1263;24263;-51
2023/03/04 12:17:29;;;;;;;6.80;2.70;;;21.50;52.00;;;;;;222270;1257;24183;-50
2023/03/04 12:23:09;;;;;;;7.30;3.10;;;21.60;52.00;;;;;;222189;1261;25373;-54
2023/03/04 12:28:38;;;;;;;7.30;3.00;;;21.50;52.50;;;;;;223072;1258;22534;-50
2023/03/04 12:33:48;;;;;;;6.00;2.70;;;21.50;52.60;;;;;;222623;1261;24256;-56
2023/03/04 12:39:10;;;;;;;5.30;2.80;;;21.70;52.20;;;;;;222468;1262;22757;-55
2023/03/04 12:44:20;;;;;;;7.40;3.10;;;21.60;53.20;;;;;;222326;1263;22512;-55
2023/03/04 12:49:48;;;;;;;10.70;4.10;;;21.60;52.90;;;;;;222506;1253;25277;-54
2023/03/04 12:54:57;;;;;;;5.50;3.30;;;21.70;52.10;;;;;;222439;1263;22518;-55
2023/03/04 13:00:08;;;;;;;9.80;3.30;;;21.70;51.20;;;;;;222395;1263;22513;-58
2023/03/04 13:05:47;;;;;;;16.20;3.50;;;21.60;51.60;;;;;;222467;1253;22682;-57
2023/03/04 13:10:52;;;;;;;10.70;3.30;;;21.50;50.80;;;;;;222327;1247;24929;-56
2023/03/04 13:16:03;;;;;;;11.60;3.00;;;21.50;50.70;;;;;;222478;1247;22545;-54
2023/03/04 13:21:10;;;;;;;5.90;2.90;;;21.40;52.10;;;;;;222611;1254;23000;-55
2023/03/04 13:26:18;;;;;;;10.30;3.10;;;21.40;52.00;;;;;;222226;1262;22564;-55
2023/03/04 13:31:25;;;;;;;4.60;2.70;;;21.40;52.50;;;;;;222698;1263;22524;-54
2023/03/04 13:36:34;;;;;;;3.30;2.30;;;21.30;52.70;;;;;;222587;1253;25331;-55
2023/03/04 13:41:49;;;;;;;3.90;2.70;;;21.40;52.30;;;;;;222327;1263;24334;-55
2023/03/04 13:46:53;;;;;;;8.30;2.80;;;21.40;51.90;;;;;;222508;1254;24184;-56
2023/03/04 13:51:58;;;;;;;7.30;3.00;;;21.40;52.10;;;;;;222325;1263;23545;-52
2023/03/04 13:57:21;;;;;;;10.30;3.20;;;21.40;51.40;;;;;;222473;1261;22525;-54
2023/03/04 14:02:26;;;;;;;2.80;2.40;;;21.40;51.70;;;;;;222447;1263;24183;-56
2023/03/04 14:07:34;;;;;;;6.80;2.40;;;21.30;49.90;;;;;;222372;1261;22652;-57
2023/03/04 14:12:45;;;;;;;8.50;2.10;;;21.30;49.80;;;;;;222339;1263;24286;-57
2023/03/04 14:17:53;;;;;;;9.60;2.30;;;21.30;49.30;;;;;;222267;1263;209307;-54
2023/03/04 14:22:59;;;;;;;6.40;2.50;;;21.30;49.40;;;;;;222228;1261;24670;-53
2023/03/04 14:28:15;;;;;;;12.80;2.90;;;21.30;50.10;;;;;;222392;1263;24246;-52
2023/03/04 14:33:24;;;;;;;13.40;2.50;;;21.20;50.20;;;;;;222357;1248;22686;-51
2023/03/04 14:38:33;;;;;;;11.20;2.50;;;21.50;50.80;;;;;;222483;1253;25313;-61
2023/03/04 14:43:53;;;;;;;7.00;2.40;;;22.00;49.40;;;;;;222395;1263;25684;-53
2023/03/04 14:48:58;;;;;;;10.60;2.40;;;22.40;49.10;;;;;;222499;1253;24291;-55
2023/03/04 14:54:03;;;;;;;7.60;2.40;;;22.50;49.00;;;;;;221846;1253;22662;-60
2023/03/04 14:59:12;;;;;;;7.90;1.90;;;22.50;49.20;;;;;;221788;1257;22522;-59
2023/03/04 15:04:18;;;;;;;1.80;1.60;;;22.50;49.30;;;;;;222109;1263;22516;-55
2023/03/04 15:09:26;;;;;;;5.90;2.60;;;22.50;50.10;;;;;;222003;1263;22636;-56
2023/03/04 15:14:55;;;;;;;13.50;2.50;;;22.60;49.90;;;;;;222138;1263;22536;-57
2023/03/04 15:20:17;;;;;;;4.90;2.20;;;22.70;49.50;;;;;;222172;1263;22526;-58
2023/03/04 15:25:22;;;;;;;8.10;2.10;;;22.90;49.70;;;;;;222105;1270;25460;-54
2023/03/04 15:30:32;;;;;;;7.40;2.00;;;22.90;49.20;;;;;;222230;1259;22529;-49
2023/03/04 15:35:38;;;;;;;9.00;2.30;;;23.00;49.60;;;;;;222107;1255;22525;-50
2023/03/04 15:40:42;;;;;;;15.20;2.80;;;23.10;49.30;;;;;;221962;1247;22870;-61
2023/03/04 15:45:48;;;;;;;7.50;2.30;;;23.10;48.50;;;;;;222242;1263;22627;-48
2023/03/04 15:50:58;;;;;;;6.10;1.60;;;23.10;48.70;;;;;;222147;1263;22636;-49
2023/03/04 15:56:05;;;;;;;10.60;2.30;;;23.10;48.30;;;;;;222097;1263;24215;-54
2023/03/04 16:01:15;;;;;;;11.80;1.90;;;23.10;48.90;;;;;;222168;1263;22546;-61
2023/03/04 16:06:22;;;;;;;9.40;2.00;;;23.10;48.80;;;;;;222184;1263;22523;-49
2023/03/04 16:11:29;;;;;;;8.70;2.50;;;23.00;48.90;;;;;;222270;1257;26640;-59
2023/03/04 16:16:34;;;;;;;24.90;2.40;;;22.90;49.30;;;;;;222286;1256;24336;-58
2023/03/04 16:21:40;;;;;;;143.00;130.20;;;22.80;49.30;;;;;;222019;1263;22958;-55
2023/03/04 16:26:45;;;;;;;63.10;34.10;;;22.90;52.20;;;;;;222131;1262;24293;-51
2023/03/04 16:31:49;;;;;;;28.50;15.20;;;22.80;49.50;;;;;;222179;1263;25459;-51
2023/03/04 16:36:54;;;;;;;17.10;12.10;;;22.70;49.40;;;;;;221884;1269;22532;-45
2023/03/04 16:42:01;;;;;;;22.00;11.00;;;22.60;49.80;;;;;;222099;1246;24630;-46
2023/03/04 16:47:06;;;;;;;15.90;10.10;;;22.60;49.50;;;;;;222177;1262;24213;-48
2023/03/04 16:52:25;;;;;;;22.00;10.30;;;22.70;49.20;;;;;;222252;1263;25459;-47
2023/03/04 16:57:30;;;;;;;18.20;9.70;;;22.70;49.50;;;;;;222234;1263;22602;-45
2023/03/04 17:02:36;;;;;;;14.50;9.60;;;22.70;49.50;;;;;;222186;1264;25074;-44
2023/03/04 17:07:40;;;;;;;14.10;8.90;;;22.70;49.20;;;;;;222176;1263;22764;-44
2023/03/04 17:12:45;;;;;;;17.10;8.00;;;22.60;49.10;;;;;;222446;1267;25462;-48
2023/03/04 17:17:51;;;;;;;12.20;7.50;;;22.50;49.40;;;;;;222087;1267;25393;-54
2023/03/04 17:22:58;;;;;;;11.10;7.10;;;22.60;49.00;;;;;;221743;1263;23135;-52
2023/03/04 17:28:04;;;;;;;9.90;6.90;;;22.50;48.80;;;;;;222193;1263;24422;-44
2023/03/04 17:33:09;;;;;;;16.60;6.10;;;22.50;49.30;;;;;;222195;1267;22523;-53
2023/03/04 17:38:15;;;;;;;12.00;6.80;;;22.40;49.40;;;;;;222094;1266;22611;-48
2023/03/04 17:43:22;;;;;;;11.50;5.70;;;22.40;49.60;;;;;;221985;1266;24170;-52
2023/03/04 17:48:26;;;;;;;13.70;6.00;;;22.20;49.60;;;;;;222137;1263;24339;-57
2023/03/04 17:53:32;;;;;;;15.30;6.00;;;22.10;49.30;;;;;;222093;1263;22656;-48
2023/03/04 17:58:39;;;;;;;12.70;5.70;;;22.00;49.40;;;;;;224751;1263;24414;-48
2023/03/04 18:03:47;;;;;;;11.80;5.10;;;22.10;49.20;;;;;;222268;1266;23119;-48
2023/03/04 18:08:53;;;;;;;10.60;5.10;;;22.00;49.70;;;;;;222090;1264;24183;-49
2023/03/04 18:13:58;;;;;;;9.10;4.90;;;21.90;49.30;;;;;;222160;1259;22508;-55
2023/03/04 18:19:04;;;;;;;15.00;5.20;;;21.80;49.50;;;;;;222203;1263;24305;-57
2023/03/04 18:24:13;;;;;;;10.70;5.20;;;21.80;49.40;;;;;;222113;1263;25374;-54
2023/03/04 18:29:19;;;;;;;9.50;5.10;;;21.80;49.20;;;;;;221580;1263;24193;-56
2023/03/04 18:34:26;;;;;;;7.60;4.30;;;21.80;49.10;;;;;;221624;1263;24158;-48
2023/03/04 18:39:31;;;;;;;6.90;3.70;;;21.80;48.90;;;;;;222242;1256;24334;-46
2023/03/04 18:44:39;;;;;;;8.60;4.10;;;21.80;48.80;;;;;;222280;1263;22504;-47
2023/03/04 18:49:47;;;;;;;9.00;7.50;;;22.00;48.60;;;;;;222043;1263;25328;-47
2023/03/04 18:54:55;;;;;;;14.40;8.60;;;22.40;47.50;;;;;;222080;1256;22538;-46
2023/03/04 19:00:05;;;;;;;11.00;8.80;;;22.90;47.10;;;;;;221944;1266;22633;-48
2023/03/04 19:05:22;;;;;;;9.50;8.20;;;23.00;46.30;;;;;;222332;1263;22508;-45
2023/03/04 19:10:33;;;;;;;11.80;7.90;;;23.00;46.30;;;;;;222189;1263;22523;-46
2023/03/04 19:15:39;;;;;;;9.90;7.60;;;23.10;46.30;;;;;;221924;1263;22646;-46
2023/03/04 19:28:00;;;;;;;11.60;7.80;;;23.10;45.60;;;;;;222042;1251;25470;-50
2023/03/04 19:33:11;;;;;;;11.40;6.60;;;23.20;46.20;;;;;;221946;1263;22507;-47
2023/03/04 19:38:21;;;;;;;10.00;6.20;;;23.40;46.10;;;;;;222209;1263;22518;-47
2023/03/04 19:43:28;;;;;;;7.40;5.70;;;23.40;45.50;;;;;;221922;1270;23617;-52
2023/03/04 19:48:39;;;;;;;7.10;6.20;;;23.30;45.40;;;;;;222147;1263;22708;-49
2023/03/04 20:00:35;;;;;;;5.50;4.90;;;23.10;45.80;;;;;;222119;1247;25241;-45
2023/03/04 20:05:43;;;;;;;5.70;4.20;;;22.90;46.00;;;;;;222231;1254;22510;-46
2023/03/04 20:10:49;;;;;;;6.30;4.60;;;22.70;46.60;;;;;;222273;1266;23959;-47
2023/03/04 20:15:58;;;;;;;4.50;4.10;;;22.60;46.80;;;;;;222153;1263;22521;-47
2023/03/04 20:21:05;;;;;;;5.70;4.60;;;22.50;47.70;;;;;;222269;1257;22503;-50
2023/03/04 20:26:13;;;;;;;5.90;4.40;;;22.40;47.80;;;;;;221980;1263;25229;-46
2023/03/04 20:31:31;;;;;;;4.10;3.70;;;22.40;47.50;;;;;;222134;1263;22518;-52
2023/03/04 20:36:43;;;;;;;7.00;4.10;;;22.40;48.10;;;;;;221942;1260;22507;-48
2023/03/04 20:41:49;;;;;;;26.50;6.70;;;22.60;48.40;;;;;;222119;1263;25314;-48
2023/03/04 20:46:54;;;;;;;18.60;7.90;;;22.90;49.40;;;;;;222080;1263;23830;-48
2023/03/04 20:52:05;;;;;;;13.20;5.80;;;22.70;48.90;;;;;;222193;1263;22518;-49
2023/03/04 20:57:10;;;;;;;13.40;4.70;;;22.60;49.70;;;;;;222421;1263;22999;-47
2023/03/04 21:02:18;;;;;;;10.80;5.20;;;22.50;50.30;;;;;;222170;1263;24206;-46
2023/03/04 21:07:25;;;;;;;9.70;5.00;;;22.50;50.90;;;;;;222085;1263;25283;-47
2023/03/04 21:12:30;;;;;;;6.50;4.40;;;22.50;50.90;;;;;;222223;1263;22903;-46
2023/03/04 21:17:35;;;;;;;11.50;4.50;;;22.50;50.70;;;;;;221886;1247;26061;-42
2023/03/04 21:22:44;;;;;;;17.40;4.60;;;22.50;50.70;;;;;;221920;1263;23283;-42
2023/03/04 21:27:49;;;;;;;11.30;4.10;;;22.40;50.50;;;;;;222064;1263;22749;-41
2023/03/04 21:32:55;;;;;;;9.30;4.40;;;22.40;50.40;;;;;;222044;1263;25310;-42
2023/03/04 21:38:01;;;;;;;11.00;3.80;;;22.20;50.50;;;;;;222139;1263;22805;-40
2023/03/04 21:43:06;;;;;;;10.60;4.00;;;22.20;50.30;;;;;;222104;1263;22598;-40
2023/03/04 21:48:11;;;;;;;6.60;4.40;;;22.10;50.50;;;;;;222005;1263;22507;-41
2023/03/04 21:53:20;;;;;;;7.50;4.20;;;22.00;50.60;;;;;;222131;1263;24128;-39
2023/03/04 21:58:25;;;;;;;8.00;3.60;;;22.00;50.40;;;;;;222080;1263;22811;-42
2023/03/04 22:03:29;;;;;;;7.20;3.80;;;22.00;50.30;;;;;;222107;1256;25389;-41
2023/03/04 22:08:35;;;;;;;7.40;3.00;;;22.00;50.30;;;;;;221735;1256;25553;-41
2023/03/04 22:13:40;;;;;;;9.40;3.20;;;21.90;50.40;;;;;;222052;1266;25319;-42
2023/03/04 22:18:44;;;;;;;6.10;3.80;;;21.90;50.40;;;;;;221982;1257;22530;-42
2023/03/04 22:23:48;;;;;;;5.50;3.20;;;21.90;50.30;;;;;;221753;1267;23157;-41
2023/03/04 22:28:52;;;;;;;5.20;2.90;;;21.90;50.40;;;;;;221723;1263;22510;-39
2023/03/04 22:33:56;;;;;;;8.90;3.40;;;21.70;51.10;;;;;;221891;1262;24332;-39
2023/03/04 22:39:01;;;;;;;8.90;3.70;;;21.80;51.10;;;;;;221793;1266;22518;-40
2023/03/04 22:44:05;;;;;;;7.20;3.40;;;21.70;51.30;;;;;;221911;1258;23953;-39
2023/03/04 22:49:12;;;;;;;9.00;3.60;;;21.70;51.30;;;;;;221640;1265;22634;-38
2023/03/04 22:54:17;;;;;;;6.20;2.70;;;21.60;51.90;;;;;;221855;1257;26746;-39
2023/03/04 22:59:21;;;;;;;5.00;3.10;;;21.60;51.20;;;;;;221812;1263;22595;-40
2023/03/04 23:04:25;;;;;;;7.20;3.20;;;21.70;51.20;;;;;;222010;1263;24023;-39
2023/03/04 23:09:29;;;;;;;4.00;3.00;;;21.70;51.10;;;;;;222178;1263;22655;-40
2023/03/04 23:14:33;;;;;;;6.60;3.00;;;21.60;51.00;;;;;;222222;1263;22508;-40
2023/03/04 23:19:38;;;;;;;4.00;2.60;;;21.50;51.10;;;;;;222122;1256;24085;-40
2023/03/04 23:24:42;;;;;;;3.10;2.80;;;21.70;50.90;;;;;;222312;1263;23478;-40
2023/03/04 23:29:46;;;;;;;4.30;2.60;;;22.00;50.40;;;;;;222162;1267;22640;-40
2023/03/04 23:34:52;;;;;;;3.80;2.80;;;22.40;49.70;;;;;;222170;1257;23880;-40
2023/03/04 23:39:56;;;;;;;2.90;2.30;;;22.60;49.00;;;;;;221770;1257;23636;-38
2023/03/04 23:45:00;;;;;;;4.50;3.00;;;22.70;48.70;;;;;;222112;1264;25343;-40
2023/03/04 23:50:05;;;;;;;2.80;2.20;;;22.90;48.40;;;;;;222201;1263;22652;-39
2023/03/04 23:55:15;;;;;;;3.10;2.80;;;22.90;48.10;;;;;;222115;1256;24218;-38
